ENDU Airport Information

Runway Information
Runway 10 Length 8015 ft width 148 ft Elevation 252 ft Threshold 1880 ft Heading 109
Runway 28 Length 8015 ft Width 148 ft Elevation 219 ft Threshold N/A Heading 289
Airport Frequencies
Type APP Name APP Frequency 118.8 MHZ
Type ATIS Name ATIS Frequency 129.725 MHZ
Type TWR Name TWR Frequency 118.1 MHZ
Airport Navaids
Type TACAN Name Bardufoss Frequency 113400 KHZ
Type VOR-DME Name Bardufoss Frequency 114200 KHZ
Type NDB Name Sorreisa Frequency 338 KHZ
Type NDB Name Senja Frequency 414 KHZ
Type NDB Name Fossmo Frequency 371 KHZ
Type NDB Name Tiller Frequency 350 KHZ
Airport Weather Information & NOTAM
ADDS - METARS form results

(1609 UTC 01 December 2022)
Data provider http://aviationweather.gov/metar/data/
 
METAR text: ENDU 011550Z 00000KT 2500 BR VV008 M01/M02 Q1036 TEMPO 1200 BR VV005 RMK WIND 1100FT 17001KT WIND 2200FT 35005KT
Conditions at: ENDU (BARDUFOSS (CIV/M, NO) observed 1550 UTC 01 December 2022
Temperature: -1.0°C (30°F)
Dewpoint: -2.0°C (28°F) [RH = 93%]
Pressure (altimeter): 30.59 inches Hg (1036.0 mb)
Winds: calm
Visibility: 1.55 miles (2.49 km)
Ceiling: indefinite ceiling with vertical visibility of 800 feet AGL
Clouds: obscured sky
Weather: BR  (mist)

METAR text: ENDU 011520Z 00000KT 1500 BR VV005 M02/M02 Q1036 TEMPO 0800 FZFG VV004 RMK WIND 1100FT VRB01KT WIND 2200FT 35006KT
Conditions at: ENDU (BARDUFOSS (CIV/M, NO) observed 1520 UTC 01 December 2022
Temperature: -2.0°C (28°F)
Dewpoint: -2.0°C (28°F) [RH = 100%]
Pressure (altimeter): 30.59 inches Hg (1036.0 mb)
Winds: calm
Visibility: 0.93 miles (1.50 km)
Ceiling: indefinite ceiling with vertical visibility of 500 feet AGL
Clouds: obscured sky
Weather: BR  (mist)

Forecast for: AMD
Text: AMD ENDU 0112/0212 VRB03KT 9999 SCT005 BKN016
Forecast period: 1200 UTC 01 December 2022 to 1200 UTC 02 December 2022
Forecast type: FROM: standard forecast or significant change
Winds: variable direction winds at 3 MPH (3 knots; 1.5 m/s)
Visibility: 6 or more miles (10+ km)
Ceiling: 1600 feet AGL
Clouds: scattered clouds at 500 feet AGL
broken clouds at 1600 feet AGL
Weather: no significant weather forecast for this period
Text: TEMPO 0112/0116 1200 -FZDZ BR VV004
Forecast period: 1200 to 1600 UTC 01 December 2022
Forecast type: TEMPORARY: The following changes expected for less than half the time period
Visibility: 0.75 miles (1.21 km)
Ceiling: indefinite ceiling with vertical visibility of 400 feet AGL
Clouds: obscured sky
Weather: -FZDZ BR  (light freezing drizzle, mist)
Text: PROB40 0116/0207 0500 FZFG VV002
Forecast period: 1600 UTC 01 December 2022 to 0700 UTC 02 December 2022
Forecast type: PROBABLE: 40 percent likelihood of the following during this time
Visibility: 0.31 miles (0.50 km)
Ceiling: indefinite ceiling with vertical visibility of 200 feet AGL
Clouds: obscured sky
Weather: FZFG  (freezing fog)